Latest Coastal Weather Observations for Maningrida Airport

IDD60701

Issued at 3:45 am CST Wednesday 1 October 2014 (issued every 10 minutes, with the page automatically refreshed every 10 minutes)

About coastal observations | Map of coastal stations | Coastal observations for NT | Marine services | Other Formats
Station Details ID: 014405 Name: MANINGRIDA AIRPORT Lat: -12.06 Lon: 134.23 Height: 28.1 m
Data from the previous 72 hours. | See also: Recent months at Maningrida Airport
Date/Time
CST
Temp

°C
Wind Pressure Rain
since 9am
mm
Weather Cloud Vis
km
Sea
Height
m
Swell
Dir
 
Speed
knots
Gust
knots
hPa Trend Height
m
Period
s
Dir
01/03:30am 22.7 SE 7 9 1012.2 - 0.0 - - 10 - - - -
01/03:00am 22.8 ESE 8 12 1012.3 - 0.0 - - 10 - - - -
01/02:30am 23.1 SE 8 10 1012.5 - 0.0 - - 10 - - - -
01/02:00am 23.1 ESE 7 9 1012.6 - 0.0 - - 10 - - - -
01/01:30am 23.1 ESE 6 9 1012.8 - 0.0 - - 10 - - - -
01/01:00am 22.1 SE 5 7 1012.9 - 0.0 - - 10 - - - -
01/12:30am 22.5 S 4 5 1012.9 - 0.0 - - 10 - - - -
01/12:00am 23.0 SSW 2 3 1013.0 - 0.0 - - 10 - - - -
 
Date/Time
CST
Temp

°C
Wind Pressure Rain
since 9am
mm
Weather Cloud Vis
km
Sea
Height
m
Swell
Dir
 
Speed
knots
Gust
knots
hPa Trend Height
m
Period
s
Dir
30/11:30pm 23.8 SSW 4 5 1013.0 - 0.0 - - 10 - - - -
30/11:00pm 25.4 ESE 6 8 1013.2 - 0.0 - - 10 - - - -
30/10:30pm 25.9 E 6 11 1013.3 - 0.0 - - 10 - - - -
30/10:00pm 26.1 E 7 11 1013.2 - 0.0 - - 10 - - - -
30/09:30pm 26.3 E 7 11 1013.1 - 0.0 - - 10 - - - -
30/09:00pm 26.4 E 7 11 1012.8 - 0.0 - - 10 - - - -
30/08:30pm 26.5 ENE 7 14 1012.5 - 0.0 - - 10 - - - -
30/08:00pm 26.4 ENE 7 11 1012.0 - 0.0 - - 10 - - - -
30/07:30pm 26.4 ENE 9 15 1011.7 - 0.0 - - 10 - - - -
30/07:00pm 26.4 ENE 7 11 1011.2 - 0.0 - Partly cloudy 10 - - - -
30/06:30pm 26.6 NE 7 12 1011.0 - 0.0 - Partly cloudy 10 - - - -
30/06:00pm 27.0 ENE 10 15 1010.7 - 0.0 - - 10 - - - -
30/05:30pm 27.3 NE 11 17 1010.3 - 0.0 - - 10 - - - -
30/05:00pm 27.6 ENE 10 18 1010.3 - 0.0 - - 10 - - - -
30/04:30pm 28.4 ENE 11 17 1010.3 - 0.0 - - 10 - - - -
30/04:00pm 29.1 NE 11 18 1010.4 - 0.0 - - 10 - - - -
30/03:30pm 28.9 NE 13 18 1010.5 - 0.0 - - 10 - - - -
30/03:00pm 28.7 NE 14 21 1010.7 - 0.0 - - 10 - - - -
30/02:30pm 29.6 NE 13 21 1011.0 - 0.0 - - 10 - - - -
30/02:00pm 29.4 NNE 16 23 1011.2 - 0.0 - - 10 - - - -
30/01:30pm 29.8 NE 12 19 1011.6 - 0.0 - - 10 - - - -
30/01:00pm 29.7 NE 13 21 1012.1 - 0.0 - - 10 - - - -
30/12:30pm 29.9 ENE 13 21 1012.7 - 0.0 - - 10 - - - -
30/12:00pm 29.9 NE 12 18 1013.3 - 0.0 - - 10 - - - -
30/11:30am 30.1 NE 10 18 1013.6 - 0.0 - Partly cloudy 10 - - - -
30/11:00am 29.4 E 12 18 1014.1 - 0.0 - - 10 - - - -
30/10:30am 28.9 ENE 10 15 1014.5 - 0.0 - Partly cloudy 10 - - - -
30/10:00am 28.2 ENE 9 15 1014.9 - 0.0 - Partly cloudy 10 - - - -
30/09:30am 27.8 E 8 12 1015.0 - 0.0 - Partly cloudy 10 - - - -
30/09:00am 27.6 ENE 9 13 1014.8 - 0.0 - Mostly clear 10 - - - -
30/08:30am 26.6 ENE 8 11 1014.6 - 0.0 - - 10 - - - -
30/08:00am 25.5 E 6 9 1014.3 - 0.0 - - 10 - - - -
30/07:30am 24.4 E 6 8 1013.8 - 0.0 - - 10 - - - -
30/07:00am 23.1 ESE 5 7 1013.7 - 0.0 - - 10 - - - -
30/06:30am 21.5 SSE 4 5 1013.5 - 0.0 - - 10 - - - -
30/06:00am 21.6 SSE 4 5 1013.3 - 0.0 - - 10 - - - -
30/05:30am 22.2 S 5 6 1013.1 - 0.0 - - 10 - - - -
30/05:00am 22.3 S 4 6 1012.7 - 0.0 - - 10 - - - -
30/04:30am 22.7 S 3 4 1012.5 - 0.0 - - 10 - - - -
30/04:00am 23.6 SSE 5 6 1012.4 - 0.0 - - 10 - - - -
30/03:30am 24.3 SE 7 11 1012.3 - 0.0 - Partly cloudy 10 - - - -
30/03:00am 24.6 SE 8 11 1012.1 - 0.0 - Mostly clear 10 - - - -
30/02:30am 25.0 ESE 8 11 1011.9 - 0.0 - - 10 - - - -
30/02:00am 25.3 E 7 11 1011.9 - 0.0 - - 10 - - - -
30/01:30am 25.6 E 7 13 1012.0 - 0.0 - Partly cloudy 10 - - - -
30/01:00am 25.9 E 7 12 1012.3 - 0.0 - Partly cloudy 10 - - - -
30/12:30am 26.0 E 7 11 1012.6 - 0.0 - Partly cloudy 10 - - - -
30/12:00am 25.8 E 5 9 1012.7 - 0.0 - Mostly clear 10 - - - -
 
Date/Time
CST
Temp

°C
Wind Pressure Rain
since 9am
mm
Weather Cloud Vis
km
Sea
Height
m
Swell
Dir
 
Speed
knots
Gust
knots
hPa Trend Height
m
Period
s
Dir
29/11:30pm 26.2 E 6 10 1012.8 - 0.0 - - 10 - - - -
29/11:00pm 26.2 E 5 9 1012.8 - 0.0 - - 10 - - - -
29/10:30pm 26.2 E 5 6 1012.9 - 0.0 - - 10 - - - -
29/10:00pm 26.2 E 5 7 1012.9 - 0.0 - - 10 - - - -
29/09:30pm 26.3 ENE 6 9 1012.6 - 0.0 - - 10 - - - -
29/09:00pm 26.5 ENE 7 11 1012.2 - 0.0 - - 10 - - - -
29/08:30pm 26.5 ENE 8 11 1011.9 - 0.0 - - 10 - - - -
29/08:00pm 26.5 NE 8 11 1011.5 - 0.0 - Partly cloudy 10 - - - -
29/07:30pm 26.6 NE 8 11 1011.3 - 0.0 - Partly cloudy 10 - - - -
29/07:00pm 26.5 NE 9 13 1011.0 - 0.0 - - 10 - - - -
29/06:30pm 26.6 NE 9 13 1010.7 - 0.0 - - 10 - - - -
29/06:00pm 27.3 NE 8 12 1010.4 - 0.0 - - 10 - - - -
29/05:30pm 27.8 NNE 9 13 1010.2 - 0.0 - - 10 - - - -
29/05:00pm 28.3 NNE 11 15 1010.0 - 0.0 - - 10 - - - -
29/04:30pm 28.6 NNE 8 11 1009.9 - 0.0 - - 10 - - - -
29/04:00pm 28.9 NNE 10 13 1009.9 - 0.0 - - 10 - - - -
29/03:30pm 29.5 N 11 16 1010.0 - 0.0 - - 10 - - - -
29/03:00pm 29.8 N 11 14 1010.1 - 0.0 - - 10 - - - -
29/02:30pm 29.6 NNE 12 17 1010.4 - 0.0 - - 10 - - - -
29/02:00pm 30.7 NNE 12 16 1010.8 - 0.0 - - 10 - - - -
29/01:30pm 29.4 NNE 11 16 1011.4 - 0.0 - Partly cloudy 10 - - - -
29/01:00pm 29.9 NNE 11 17 1011.8 - 0.0 - - 10 - - - -
29/12:30pm 30.5 NNE 11 16 1012.2 - 0.0 - Partly cloudy 10 - - - -
29/12:00pm 29.4 NNE 10 14 1012.6 - 0.0 - Mostly clear 10 - - - -
29/11:30am 29.9 ENE 10 15 1013.0 - 0.0 - Partly cloudy 10 - - - -
29/11:00am 30.3 NNE 9 13 1013.4 - 0.0 - Partly cloudy 10 - - - -
29/10:30am 29.6 NE 7 11 1013.5 - 0.0 - Partly cloudy 10 - - - -
29/10:00am 29.3 NNE 8 12 1013.6 - 0.0 - Partly cloudy 10 - - - -
29/09:30am 27.8 NE 7 11 1013.7 - 0.0 - Partly cloudy 10 - - - -
29/09:00am 27.9 NE 8 11 1013.7 - 0.0 - Mostly clear 10 - - - -
29/08:30am 27.5 NNE 8 12 1013.6 - 0.0 - Partly cloudy 10 - - - -
29/08:00am 27.1 NNE 7 11 1013.4 - 0.0 - Partly cloudy 10 - - - -
29/07:30am 25.8 NE 5 8 1013.1 - 0.0 - Partly cloudy 10 - - - -
29/07:00am 22.3 SE 2 4 1012.8 - 0.0 - Partly cloudy 10 - - - -
29/06:30am 21.8 E 1 3 1012.3 - 0.0 - Partly cloudy 10 - - - -
29/06:00am 22.6 CALM 0 2 1012.0 - 0.0 - Partly cloudy 10 - - - -
29/05:30am 24.5 ENE 4 5 1011.5 - 0.0 - Partly cloudy 10 - - - -
29/05:00am 24.7 NE 4 7 1011.2 - 0.0 - Partly cloudy 10 - - - -
29/04:30am 24.8 NE 5 7 1010.8 - 0.0 - Partly cloudy 10 - - - -
29/04:00am 25.0 ENE 4 8 1010.8 - 0.0 - Partly cloudy 10 - - - -
29/03:30am 25.1 ENE 5 7 1010.5 - 0.0 - Partly cloudy 10 - - - -
29/03:00am 25.1 ENE 7 9 1010.4 - 0.0 - - 10 - - - -
29/02:30am 25.2 ENE 7 11 1010.7 - 0.0 - Partly cloudy 10 - - - -
29/02:00am 25.4 ENE 7 11 1011.1 - 0.0 - - 10 - - - -
29/01:30am 25.6 ENE 8 14 1011.4 - 0.0 - Partly cloudy 10 - - - -
29/01:00am 25.3 ENE 5 9 1011.7 - 0.0 - Partly cloudy 10 - - - -
29/12:30am 24.2 ENE 4 5 1011.9 - 0.0 - - 10 - - - -
29/12:00am 22.6 E 2 4 1012.1 - 0.0 - - 9 - - - -
 
Date/Time
CST
Temp

°C
Wind Pressure Rain
since 9am
mm
Weather Cloud Vis
km
Sea
Height
m
Swell
Dir
 
Speed
knots
Gust
knots
hPa Trend Height
m
Period
s
Dir
28/11:30pm 22.5 CALM 0 0 1012.3 - 0.0 - - 10 - - - -
28/11:00pm 22.9 CALM 0 0 1012.8 - 0.0 - - 10 - - - -
28/10:30pm 23.6 CALM 0 0 1012.6 - 0.0 - - 10 - - - -
28/10:00pm 24.8 E 3 4 1012.5 - 0.0 - - 10 - - - -
28/09:30pm 25.3 E 3 5 1012.1 - 0.0 - - 10 - - - -
28/09:00pm 25.1 ENE 4 5 1011.7 - 0.0 - - 10 - - - -
28/08:30pm 25.4 E 3 5 1011.2 - 0.0 - - 10 - - - -
28/08:00pm 25.6 ENE 3 5 1010.8 - 0.0 - - 10 - - - -
28/07:30pm 26.0 ENE 4 5 1010.3 - 0.0 - - 10 - - - -
28/07:00pm 26.5 NE 5 7 1009.8 - 0.0 - - 10 - - - -
28/06:30pm 27.0 NE 5 7 1009.7 - 0.0 - - 10 - - - -
28/06:00pm 27.8 NNE 8 11 1009.8 - 0.0 - - 10 - - - -
28/05:30pm 28.2 NNE 9 13 1009.6 - 0.0 - - 10 - - - -
28/05:00pm 28.8 NE 11 16 1009.3 - 0.0 - - 10 - - - -
28/04:30pm 29.6 NNE 10 13 1009.3 - 0.0 - - 10 - - - -
28/04:00pm 30.2 NNE 11 17 1009.6 - 0.0 - - 10 - - - -
28/03:30pm 30.1 NE 13 18 1009.8 - 0.0 - - 10 - - - -
28/03:00pm 30.0 NNE 11 16 1010.1 - 0.0 - - 10 - - - -
28/02:30pm 30.3 NNE 12 17 1010.4 - 0.0 - - 10 - - - -
28/02:00pm 29.6 NNE 12 15 1010.8 - 0.0 - - 10 - - - -
28/01:30pm 30.0 N 12 16 1011.2 - 0.0 - - 10 - - - -
28/01:00pm 29.7 N 13 16 1011.7 - 0.0 - - 10 - - - -
28/12:30pm 30.5 N 12 15 1012.2 - 0.0 - - 10 - - - -
28/12:00pm 30.9 N 12 15 1012.8 - 0.0 - - 10 - - - -
28/11:30am 31.0 NNW 11 15 1013.2 - 0.0 - - 10 - - - -
28/11:00am 30.4 N 9 12 1013.5 - 0.0 - - 10 - - - -
28/10:30am 30.3 NNW 6 11 1013.8 - 0.0 - - 10 - - - -
28/10:00am 30.2 NNW 4 8 1014.1 - 0.0 - - 10 - - - -
28/09:30am 28.6 W 4 6 1014.2 - 0.0 - - 10 - - - -
28/09:00am 27.3 SW 4 7 1014.4 - 0.0 - - 10 - - - -
28/08:30am 25.7 SW 5 8 1014.3 - 0.0 - - 10 - - - -
28/08:00am 24.0 SW 4 7 1014.1 - 0.0 - - 10 - - - -
28/07:30am 22.4 SSW 5 6 1013.8 - 0.0 - - 10 - - - -
28/07:00am 21.2 SSW 5 7 1013.6 - 0.0 - - 10 - - - -
28/06:30am 20.6 SSW 5 6 1013.3 - 0.0 - - 10 - - - -
28/06:00am 20.6 SSW 4 6 1012.7 - 0.0 - - 10 - - - -
28/05:30am 20.5 SW 4 6 1012.6 - 0.0 - - 10 - - - -
28/05:00am 20.7 SSW 4 6 1012.2 - 0.0 - - 10 - - - -
28/04:30am 21.2 SW 5 7 1012.1 - 0.0 - - 10 - - - -
28/04:00am 21.0 SW 5 7 1011.9 - 0.0 - - 10 - - - -

Other Formats:

Comma delimited format used in spreadsheet applications
http://www.bom.gov.au/fwo/IDD60701/IDD60701.95142.axf

JavaScript Object Notation format (JSON) in row-major order
http://www.bom.gov.au/fwo/IDD60701/IDD60701.95142.json